createdAt,value
2018-06-30T00:00:38.029Z,8.20
2018-06-30T00:01:38.019Z,8.60
2018-06-30T00:02:37.990Z,7.60
2018-06-30T00:03:37.975Z,11.00
2018-06-30T00:04:37.971Z,9.10
2018-06-30T00:05:37.958Z,8.30
2018-06-30T00:06:37.969Z,8.00
2018-06-30T00:07:37.934Z,9.70
2018-06-30T00:08:37.922Z,10.20
2018-06-30T00:09:37.913Z,9.10
2018-06-30T00:10:37.917Z,9.10
2018-06-30T00:11:37.903Z,7.90
2018-06-30T00:12:37.878Z,9.70
2018-06-30T00:13:37.878Z,10.10
2018-06-30T00:14:37.856Z,9.40
2018-06-30T00:15:37.849Z,10.00
2018-06-30T00:16:37.857Z,9.60
2018-06-30T00:17:37.827Z,8.30
2018-06-30T00:18:37.828Z,8.70
2018-06-30T00:19:37.821Z,8.70
2018-06-30T00:20:37.791Z,11.50
2018-06-30T00:21:37.812Z,10.70
2018-06-30T00:22:37.773Z,9.80
2018-06-30T00:23:37.760Z,9.50
2018-06-30T00:24:37.750Z,10.80
2018-06-30T00:25:37.741Z,8.40
2018-06-30T00:26:37.728Z,9.80
2018-06-30T00:27:37.734Z,6.90
2018-06-30T00:28:37.704Z,7.40
2018-06-30T00:29:37.696Z,8.20
2018-06-30T00:30:37.681Z,8.90
2018-06-30T00:31:37.690Z,9.00
2018-06-30T00:32:37.657Z,9.80
2018-06-30T00:33:37.674Z,8.50
2018-06-30T00:34:37.651Z,10.10
2018-06-30T00:35:37.638Z,9.20
2018-06-30T00:36:37.619Z,8.40
2018-06-30T00:37:37.624Z,9.00
2018-06-30T00:38:37.595Z,8.70
2018-06-30T00:39:37.608Z,9.00
2018-06-30T00:40:37.586Z,9.60
2018-06-30T00:41:37.561Z,7.80
2018-06-30T00:42:37.552Z,8.80
2018-06-30T00:43:37.539Z,9.40
2018-06-30T00:44:37.534Z,11.30
2018-06-30T00:45:37.535Z,10.20
2018-06-30T00:46:37.510Z,10.80
2018-06-30T00:47:37.501Z,8.70
2018-06-30T00:48:37.512Z,8.80
2018-06-30T00:49:37.478Z,9.60
2018-06-30T00:50:37.492Z,9.70
2018-06-30T00:51:37.452Z,10.40
2018-06-30T00:52:37.442Z,9.10
2018-06-30T00:53:37.433Z,9.00
2018-06-30T00:54:37.417Z,7.70
2018-06-30T00:55:37.427Z,9.00
2018-06-30T00:56:37.396Z,10.70
2018-06-30T00:57:37.385Z,9.20
2018-06-30T00:58:37.400Z,9.40
2018-06-30T00:59:37.369Z,10.10
2018-06-30T01:00:37.366Z,7.60
2018-06-30T01:01:37.355Z,8.80
2018-06-30T01:02:37.333Z,9.00
2018-06-30T01:03:37.328Z,8.60
2018-06-30T01:04:37.312Z,8.90
2018-06-30T01:05:37.318Z,8.50
2018-06-30T01:06:37.287Z,8.90
2018-06-30T01:07:37.277Z,8.70
2018-06-30T01:08:37.268Z,9.70
2018-06-30T01:09:37.266Z,7.90
2018-06-30T01:10:37.257Z,8.60
2018-06-30T01:11:37.244Z,7.90
2018-06-30T01:12:37.219Z,10.00
2018-06-30T01:13:37.209Z,8.70
2018-06-30T01:14:37.196Z,9.40
2018-06-30T01:15:37.187Z,10.00
2018-06-30T01:16:37.188Z,10.00
2018-06-30T01:17:37.165Z,9.00
2018-06-30T01:18:37.158Z,9.40
2018-06-30T01:19:37.139Z,10.70
2018-06-30T01:20:37.130Z,11.00
2018-06-30T01:21:37.134Z,10.00
2018-06-30T01:22:37.127Z,10.20
2018-06-30T01:23:37.100Z,9.10
2018-06-30T01:24:37.079Z,9.60
2018-06-30T01:25:37.070Z,10.40
2018-06-30T01:26:37.060Z,9.10
2018-06-30T01:27:37.087Z,14.80
2018-06-30T01:28:37.066Z,11.80
2018-06-30T01:29:37.020Z,12.90
2018-06-30T01:30:37.018Z,13.70
2018-06-30T01:31:37.007Z,11.50
2018-06-30T01:32:37.007Z,10.60
2018-06-30T01:33:36.979Z,12.60
2018-06-30T01:34:36.965Z,11.50
2018-06-30T01:35:36.955Z,10.90
2018-06-30T01:36:36.946Z,10.30
2018-06-30T01:37:36.936Z,12.30
2018-06-30T01:38:36.946Z,12.90
2018-06-30T01:39:36.912Z,9.80
2018-06-30T01:40:36.896Z,10.10
2018-06-30T01:41:36.885Z,11.30
2018-06-30T01:42:36.872Z,9.90
2018-06-30T01:43:36.910Z,11.60
2018-06-30T01:44:36.863Z,12.30
2018-06-30T01:45:36.844Z,11.80
2018-06-30T01:46:36.830Z,12.40
2018-06-30T01:47:36.820Z,11.60
2018-06-30T01:48:36.812Z,11.30
2018-06-30T01:49:36.813Z,11.00
2018-06-30T01:50:36.792Z,11.80
2018-06-30T01:51:36.773Z,11.20
2018-06-30T01:52:36.755Z,10.60
2018-06-30T01:53:36.748Z,12.00
2018-06-30T01:54:36.738Z,11.40
2018-06-30T01:55:36.742Z,12.80
2018-06-30T01:56:36.711Z,11.90
2018-06-30T01:57:36.704Z,9.20
2018-06-30T01:58:36.702Z,11.40
2018-06-30T01:59:36.690Z,14.60
2018-06-30T02:00:36.671Z,11.50
2018-06-30T02:01:36.648Z,11.70
2018-06-30T02:02:36.645Z,10.80
2018-06-30T02:03:36.629Z,13.00
2018-06-30T02:04:36.632Z,12.10
2018-06-30T02:05:36.623Z,10.40
2018-06-30T02:06:36.595Z,11.30
2018-06-30T02:07:36.579Z,12.80
2018-06-30T02:08:36.576Z,12.10
2018-06-30T02:09:36.559Z,11.90
2018-06-30T02:10:36.562Z,11.60
2018-06-30T02:11:36.536Z,12.40
2018-06-30T02:12:36.522Z,14.30
2018-06-30T02:13:36.508Z,12.80
2018-06-30T02:14:36.508Z,11.90
2018-06-30T02:15:36.490Z,13.00
2018-06-30T02:16:36.490Z,12.80
2018-06-30T02:17:36.464Z,13.70
2018-06-30T02:18:36.455Z,11.60
2018-06-30T02:19:36.443Z,12.30
2018-06-30T02:20:36.427Z,11.80
2018-06-30T02:21:36.434Z,14.60
2018-06-30T02:22:36.428Z,13.50
2018-06-30T02:23:36.396Z,12.30
2018-06-30T02:24:36.379Z,13.00
2018-06-30T02:25:36.364Z,12.50
2018-06-30T02:26:36.355Z,13.10
2018-06-30T02:27:36.361Z,13.90
2018-06-30T02:28:36.331Z,15.00
2018-06-30T02:29:36.315Z,12.00
2018-06-30T02:30:36.304Z,11.50
2018-06-30T02:31:36.301Z,12.90
2018-06-30T02:32:36.301Z,13.20
2018-06-30T02:33:36.272Z,13.30
2018-06-30T02:34:36.286Z,14.60
2018-06-30T02:35:36.243Z,13.00
2018-06-30T02:36:36.236Z,15.80
2018-06-30T02:37:36.224Z,12.90
2018-06-30T02:38:36.205Z,12.70
2018-06-30T02:39:36.213Z,12.40
2018-06-30T02:40:36.188Z,13.10
2018-06-30T02:41:36.173Z,13.30
2018-06-30T02:42:36.164Z,11.80
2018-06-30T02:43:36.149Z,12.20
2018-06-30T02:44:36.137Z,13.40
2018-06-30T02:45:36.136Z,13.10
2018-06-30T02:46:36.113Z,15.00
2018-06-30T02:47:36.101Z,16.20
2018-06-30T02:48:36.091Z,15.30
2018-06-30T02:49:36.078Z,15.10
2018-06-30T02:50:36.081Z,12.90
2018-06-30T02:51:36.050Z,14.60
2018-06-30T02:52:36.040Z,15.70
2018-06-30T02:53:36.022Z,14.20
2018-06-30T02:54:36.010Z,15.10
2018-06-30T02:55:36.003Z,15.70
2018-06-30T02:56:36.005Z,14.10
2018-06-30T02:57:35.981Z,14.70
2018-06-30T02:58:35.968Z,13.00
2018-06-30T02:59:35.955Z,16.00
2018-06-30T03:00:35.957Z,15.90
2018-06-30T03:01:35.930Z,15.60
2018-06-30T03:02:35.918Z,14.00
2018-06-30T03:03:35.925Z,15.70
2018-06-30T03:04:35.894Z,15.80
2018-06-30T03:05:35.879Z,15.30
2018-06-30T03:06:35.885Z,14.40
2018-06-30T03:07:35.863Z,16.10
2018-06-30T03:08:35.857Z,14.70
2018-06-30T03:09:35.831Z,16.70
2018-06-30T03:10:35.829Z,16.60
2018-06-30T03:11:35.804Z,16.20
2018-06-30T03:12:35.831Z,14.10
2018-06-30T03:13:35.782Z,15.80
2018-06-30T03:14:35.795Z,14.70
2018-06-30T03:15:35.772Z,14.70
2018-06-30T03:16:35.757Z,14.50
2018-06-30T03:17:35.729Z,16.20
2018-06-30T03:18:35.748Z,17.20
2018-06-30T03:19:35.709Z,14.80
2018-06-30T03:20:35.694Z,16.50
2018-06-30T03:21:35.706Z,16.30
2018-06-30T03:22:35.782Z,14.30
2018-06-30T03:23:35.694Z,15.10
2018-06-30T03:24:35.657Z,15.60
2018-06-30T03:25:35.684Z,17.80
2018-06-30T03:26:35.645Z,17.30
2018-06-30T03:27:35.680Z,16.00
2018-06-30T03:28:35.670Z,16.60
2018-06-30T03:29:35.600Z,15.00
2018-06-30T03:30:35.627Z,16.00
2018-06-30T03:31:35.601Z,16.20
2018-06-30T03:32:35.557Z,16.50
2018-06-30T03:33:35.556Z,18.10
2018-06-30T03:34:35.564Z,15.90
2018-06-30T03:35:35.532Z,19.00
2018-06-30T03:36:35.504Z,17.60
2018-06-30T03:37:35.502Z,18.50
2018-06-30T03:38:35.536Z,15.50
2018-06-30T03:39:35.464Z,20.30
2018-06-30T03:40:35.479Z,16.70
2018-06-30T03:41:35.445Z,15.00
2018-06-30T03:42:35.428Z,16.70
2018-06-30T03:43:35.411Z,18.60
2018-06-30T03:44:35.419Z,15.10
2018-06-30T03:45:35.406Z,15.50
2018-06-30T03:46:35.391Z,17.60
2018-06-30T03:47:35.367Z,18.70
2018-06-30T03:48:35.352Z,16.80
2018-06-30T03:49:35.361Z,17.00
2018-06-30T03:50:35.338Z,17.80
2018-06-30T03:51:35.315Z,17.80
2018-06-30T03:52:35.306Z,17.10
2018-06-30T03:53:35.290Z,18.50
2018-06-30T03:54:35.278Z,14.90
2018-06-30T03:55:35.280Z,17.50
2018-06-30T03:56:35.248Z,16.30
2018-06-30T03:57:35.241Z,15.30
2018-06-30T03:58:35.229Z,16.20
2018-06-30T03:59:35.214Z,17.10
2018-06-30T04:00:35.206Z,15.30
2018-06-30T04:01:35.207Z,16.70
2018-06-30T04:02:35.176Z,17.20
2018-06-30T04:03:35.163Z,16.60
2018-06-30T04:04:35.153Z,19.00
2018-06-30T04:05:35.168Z,16.10
2018-06-30T04:06:35.127Z,17.00
2018-06-30T04:07:35.117Z,18.40
2018-06-30T04:08:35.109Z,17.10
2018-06-30T04:09:35.091Z,17.90
2018-06-30T04:10:35.074Z,17.10
2018-06-30T04:11:35.079Z,16.70
2018-06-30T04:12:35.054Z,17.80
2018-06-30T04:13:35.040Z,17.90
2018-06-30T04:14:35.025Z,16.60
2018-06-30T04:15:35.020Z,19.10
2018-06-30T04:16:35.011Z,16.00
2018-06-30T04:17:34.989Z,18.30
2018-06-30T04:18:34.980Z,20.70
2018-06-30T04:19:34.975Z,19.20
2018-06-30T04:20:34.956Z,18.30
2018-06-30T04:21:34.953Z,18.90
2018-06-30T04:22:34.943Z,18.40
2018-06-30T04:23:34.911Z,17.60
2018-06-30T04:24:34.900Z,18.60
2018-06-30T04:25:34.894Z,20.20
2018-06-30T04:26:34.880Z,18.10
2018-06-30T04:27:34.876Z,17.70
2018-06-30T04:28:34.872Z,18.80
2018-06-30T04:29:34.890Z,22.20
2018-06-30T04:30:34.830Z,18.30
2018-06-30T04:31:34.820Z,19.30
2018-06-30T04:32:34.804Z,17.30
2018-06-30T04:33:34.822Z,16.20
2018-06-30T04:34:34.781Z,19.40
2018-06-30T04:35:34.768Z,16.40
2018-06-30T04:36:34.756Z,19.10
2018-06-30T04:37:34.742Z,20.60
2018-06-30T04:38:34.733Z,18.00
2018-06-30T04:39:55.731Z,19.00
2018-06-30T04:40:34.704Z,17.20
2018-06-30T04:41:34.691Z,18.50
2018-06-30T04:42:34.687Z,19.10
2018-06-30T04:43:34.670Z,21.50
2018-06-30T04:44:34.678Z,19.20
2018-06-30T04:45:34.647Z,17.60
2018-06-30T04:46:34.642Z,18.80
2018-06-30T04:47:34.633Z,18.10
2018-06-30T04:48:34.611Z,18.00
2018-06-30T04:49:34.618Z,17.60
2018-06-30T04:50:34.589Z,18.70
2018-06-30T04:51:34.613Z,20.00
2018-06-30T04:52:34.564Z,16.30
2018-06-30T04:53:34.559Z,17.20
2018-06-30T04:54:34.552Z,17.60
2018-06-30T04:55:34.550Z,18.30
2018-06-30T04:56:34.520Z,17.60
2018-06-30T04:57:34.519Z,17.20
2018-06-30T04:58:34.494Z,18.50
2018-06-30T04:59:34.502Z,16.30
2018-06-30T05:00:34.476Z,17.60
2018-06-30T05:01:34.479Z,19.90
2018-06-30T05:02:34.450Z,22.10
2018-06-30T05:03:34.442Z,20.90
2018-06-30T05:04:34.429Z,17.00
2018-06-30T05:05:34.419Z,18.10
2018-06-30T05:06:34.439Z,19.40
2018-06-30T05:07:34.400Z,16.80
2018-06-30T05:08:34.386Z,16.90
2018-06-30T05:09:34.378Z,17.50
2018-06-30T05:10:34.362Z,17.50
2018-06-30T05:11:34.373Z,20.10
2018-06-30T05:12:34.365Z,20.70
2018-06-30T05:13:34.343Z,16.60
2018-06-30T05:14:34.323Z,17.60
2018-06-30T05:15:34.863Z,18.20
2018-06-30T05:16:34.303Z,16.40
2018-06-30T05:17:34.310Z,16.60
2018-06-30T05:18:34.285Z,16.80
2018-06-30T05:19:34.833Z,17.30
2018-06-30T05:20:34.265Z,18.30
2018-06-30T05:21:34.256Z,16.50
2018-06-30T05:22:34.243Z,15.60
2018-06-30T05:23:34.253Z,16.80
2018-06-30T05:24:34.910Z,16.70
2018-06-30T05:25:34.215Z,17.00
2018-06-30T05:26:34.205Z,16.60
2018-06-30T05:27:34.251Z,16.90
2018-06-30T05:28:34.199Z,17.40
2018-06-30T05:29:34.167Z,16.40
2018-06-30T05:30:34.179Z,16.40
2018-06-30T05:31:34.153Z,16.60
2018-06-30T05:32:34.154Z,14.40
2018-06-30T05:33:34.302Z,19.00
2018-06-30T05:34:34.121Z,15.60
2018-06-30T05:35:34.112Z,17.20
2018-06-30T05:36:34.102Z,15.10
2018-06-30T05:37:34.090Z,18.00
2018-06-30T05:38:34.109Z,17.40
2018-06-30T05:39:34.070Z,15.70
2018-06-30T05:40:34.054Z,16.40
2018-06-30T05:41:34.839Z,16.10
2018-06-30T05:42:34.040Z,17.00
2018-06-30T05:43:34.043Z,16.30
2018-06-30T05:44:34.042Z,15.70
2018-06-30T05:45:34.053Z,16.60
2018-06-30T05:46:33.997Z,14.60
2018-06-30T05:47:33.999Z,16.70
2018-06-30T05:48:33.972Z,14.30
2018-06-30T05:49:33.977Z,15.30
2018-06-30T05:50:34.843Z,16.10
2018-06-30T05:51:33.949Z,15.30
2018-06-30T05:52:33.941Z,19.00
2018-06-30T05:53:33.922Z,15.00
2018-06-30T05:54:33.918Z,17.60
2018-06-30T05:55:33.919Z,15.60
2018-06-30T05:56:33.914Z,18.20
2018-06-30T05:57:33.945Z,16.10
2018-06-30T05:58:33.965Z,15.50
2018-06-30T05:59:33.866Z,15.60
2018-06-30T06:00:33.876Z,14.80
2018-06-30T06:01:33.866Z,17.00
2018-06-30T06:02:33.831Z,18.10
2018-06-30T06:03:33.819Z,16.10
2018-06-30T06:04:33.809Z,14.90
2018-06-30T06:05:33.805Z,16.20
2018-06-30T06:06:34.426Z,15.20
2018-06-30T06:07:33.804Z,14.90
2018-06-30T06:08:33.772Z,16.40
2018-06-30T06:09:33.851Z,15.30
2018-06-30T06:10:33.765Z,16.80
2018-06-30T06:11:33.745Z,16.70
2018-06-30T06:12:33.759Z,15.30
2018-06-30T06:13:33.738Z,14.70
2018-06-30T06:14:33.714Z,15.50
2018-06-30T06:15:33.712Z,16.30
2018-06-30T06:16:33.691Z,15.20
2018-06-30T06:17:33.694Z,15.90
2018-06-30T06:18:33.695Z,15.30
2018-06-30T06:19:33.670Z,15.30
2018-06-30T06:20:33.672Z,14.60
2018-06-30T06:21:33.639Z,14.10
2018-06-30T06:22:33.632Z,16.60
2018-06-30T06:23:33.645Z,16.20
2018-06-30T06:24:33.624Z,13.60
2018-06-30T06:25:33.612Z,15.10
2018-06-30T06:26:33.591Z,15.20
2018-06-30T06:27:33.651Z,15.90
2018-06-30T06:28:33.573Z,15.20
2018-06-30T06:29:33.592Z,15.00
2018-06-30T06:30:33.553Z,14.60
2018-06-30T06:31:33.556Z,13.90
2018-06-30T06:32:33.563Z,13.90
2018-06-30T06:33:33.517Z,14.60
2018-06-30T06:34:54.523Z,13.90
2018-06-30T06:35:33.496Z,13.70
2018-06-30T06:36:33.492Z,14.00
2018-06-30T06:37:33.481Z,15.80
2018-06-30T06:38:33.482Z,15.70
2018-06-30T06:39:33.466Z,14.70
2018-06-30T06:40:33.492Z,14.90
2018-06-30T06:41:33.496Z,13.80
2018-06-30T06:42:33.435Z,12.60
2018-06-30T06:43:33.417Z,14.40
2018-06-30T06:44:35.357Z,12.70
2018-06-30T06:45:33.419Z,11.60
2018-06-30T06:46:33.410Z,12.70
2018-06-30T06:47:33.403Z,12.70
2018-06-30T06:48:33.367Z,12.60
2018-06-30T06:49:33.370Z,13.30
2018-06-30T06:50:33.371Z,14.10
2018-06-30T06:51:33.377Z,13.90
2018-06-30T06:52:33.346Z,11.40
2018-06-30T06:53:33.324Z,16.90
2018-06-30T06:54:33.314Z,12.10
2018-06-30T06:55:33.333Z,11.60
2018-06-30T06:56:33.295Z,12.80
2018-06-30T06:57:33.283Z,13.00
2018-06-30T06:58:33.287Z,12.90
2018-06-30T06:59:33.273Z,14.40
2018-06-30T07:00:33.308Z,12.40
2018-06-30T07:01:33.256Z,12.70
2018-06-30T07:02:33.253Z,12.00
2018-06-30T07:03:33.230Z,11.70
2018-06-30T07:04:33.237Z,15.00
2018-06-30T07:05:33.218Z,15.10
2018-06-30T07:06:33.216Z,11.30
2018-06-30T07:07:33.194Z,11.40
2018-06-30T07:08:33.198Z,11.00
2018-06-30T07:09:33.172Z,10.70
2018-06-30T07:10:33.160Z,11.50
2018-06-30T07:11:33.153Z,12.60
2018-06-30T07:12:33.163Z,9.90
2018-06-30T07:13:33.128Z,9.90
2018-06-30T07:14:33.122Z,9.10
2018-06-30T07:15:33.112Z,11.20
2018-06-30T07:16:33.106Z,11.00
2018-06-30T07:17:33.111Z,10.30
2018-06-30T07:18:33.108Z,10.30
2018-06-30T07:19:33.073Z,11.70
2018-06-30T07:20:33.063Z,9.50
2018-06-30T07:21:33.065Z,12.20
2018-06-30T07:22:33.052Z,9.10
2018-06-30T07:23:33.054Z,11.90
2018-06-30T07:24:33.060Z,9.20
2018-06-30T07:25:33.043Z,9.60
2018-06-30T07:26:33.007Z,11.10
2018-06-30T07:27:34.421Z,9.60
2018-06-30T07:28:37.370Z,10.00
2018-06-30T07:29:33.019Z,9.40
2018-06-30T07:30:33.019Z,12.10
2018-06-30T07:31:32.965Z,10.20
2018-06-30T07:32:32.988Z,9.00
2018-06-30T07:33:32.948Z,11.20
2018-06-30T07:34:32.930Z,9.20
2018-06-30T07:35:32.981Z,10.70
2018-06-30T07:36:32.959Z,11.10
2018-06-30T07:37:32.985Z,9.60
2018-06-30T07:38:32.936Z,10.00
2018-06-30T07:39:36.460Z,10.40
2018-06-30T07:40:32.898Z,11.20
2018-06-30T07:41:32.931Z,8.30
2018-06-30T07:42:32.878Z,8.80
2018-06-30T07:43:32.864Z,8.40
2018-06-30T07:44:32.866Z,8.80
2018-06-30T07:45:32.848Z,9.50
2018-06-30T07:46:32.859Z,7.80
2018-06-30T07:47:32.830Z,8.20
2018-06-30T07:48:32.809Z,8.80
2018-06-30T07:49:32.794Z,11.40
2018-06-30T07:50:32.783Z,8.90
2018-06-30T07:51:32.792Z,9.60
2018-06-30T07:52:32.770Z,10.90
2018-06-30T07:53:32.763Z,10.00
2018-06-30T07:54:32.751Z,10.90
2018-06-30T07:55:32.745Z,9.30
2018-06-30T07:56:32.748Z,10.30
2018-06-30T07:57:32.743Z,7.90
2018-06-30T07:58:32.731Z,8.50
2018-06-30T07:59:32.708Z,8.70
2018-06-30T08:00:32.707Z,8.60
2018-06-30T08:01:32.688Z,9.40
2018-06-30T08:02:32.696Z,10.20
2018-06-30T08:03:32.673Z,10.00
2018-06-30T08:04:32.662Z,9.50
2018-06-30T08:05:32.652Z,7.70
2018-06-30T08:06:32.648Z,7.60
2018-06-30T08:07:32.651Z,7.50
2018-06-30T08:08:32.625Z,9.00
2018-06-30T08:09:32.633Z,7.10
2018-06-30T08:10:34.438Z,8.50
2018-06-30T08:11:38.377Z,8.90
2018-06-30T08:12:32.595Z,10.00
2018-06-30T08:13:32.624Z,10.30
2018-06-30T08:14:32.602Z,7.40
2018-06-30T08:15:32.566Z,8.80
2018-06-30T08:16:32.582Z,9.10
2018-06-30T08:17:32.557Z,8.70
2018-06-30T08:18:32.671Z,8.20
2018-06-30T08:19:32.615Z,7.60
2018-06-30T08:20:32.534Z,8.00
2018-06-30T08:21:32.846Z,9.30
2018-06-30T08:22:32.564Z,10.20
2018-06-30T08:23:34.484Z,8.60
2018-06-30T08:24:33.389Z,11.60
2018-06-30T08:25:34.388Z,7.40
2018-06-30T08:26:32.542Z,9.30
2018-06-30T08:27:32.478Z,11.60
2018-06-30T08:28:32.469Z,8.00
2018-06-30T08:29:32.640Z,9.90
2018-06-30T08:30:33.404Z,9.50
2018-06-30T08:31:36.915Z,7.60
2018-06-30T08:32:32.492Z,6.90
2018-06-30T08:33:32.434Z,8.30
2018-06-30T08:34:32.440Z,7.90
2018-06-30T08:35:32.414Z,8.60
2018-06-30T08:36:32.396Z,9.20
2018-06-30T08:37:37.400Z,9.20
2018-06-30T08:38:32.386Z,10.30
2018-06-30T08:39:32.389Z,6.90
2018-06-30T08:40:32.399Z,8.90
2018-06-30T08:41:32.399Z,7.90
2018-06-30T08:42:32.897Z,7.00
2018-06-30T08:43:33.399Z,9.80
2018-06-30T08:44:32.428Z,7.20
2018-06-30T08:45:32.318Z,8.00
2018-06-30T08:46:32.335Z,7.80
2018-06-30T08:47:32.344Z,7.30
2018-06-30T08:48:32.353Z,6.20
2018-06-30T08:49:32.899Z,8.20
2018-06-30T08:50:32.901Z,8.30
2018-06-30T08:51:32.352Z,9.50
2018-06-30T08:52:36.398Z,6.30
2018-06-30T08:53:32.440Z,6.40
2018-06-30T08:54:32.344Z,6.60
2018-06-30T08:55:32.444Z,7.30
2018-06-30T08:56:32.229Z,6.80
2018-06-30T08:57:32.235Z,6.20
2018-06-30T08:58:32.222Z,8.60
2018-06-30T08:59:33.404Z,7.30
2018-06-30T09:00:32.202Z,8.40
2018-06-30T09:01:32.272Z,8.60
2018-06-30T09:02:32.216Z,8.20
2018-06-30T09:03:32.231Z,5.50
2018-06-30T09:04:33.040Z,7.50
2018-06-30T09:05:32.906Z,5.90
2018-06-30T09:06:32.253Z,10.40
2018-06-30T09:07:32.162Z,5.70
2018-06-30T09:08:32.142Z,6.50
2018-06-30T09:09:32.129Z,6.40
2018-06-30T09:10:32.176Z,7.70
2018-06-30T09:11:32.293Z,7.70
2018-06-30T09:12:32.166Z,7.50
2018-06-30T09:13:35.922Z,6.80
2018-06-30T09:14:32.107Z,10.10
2018-06-30T09:15:32.095Z,8.40
2018-06-30T09:16:32.133Z,7.10
2018-06-30T09:17:32.076Z,6.30
2018-06-30T09:18:32.912Z,7.10
2018-06-30T09:19:32.072Z,7.50
2018-06-30T09:20:32.055Z,7.30
2018-06-30T09:21:32.063Z,6.40
2018-06-30T09:22:32.060Z,7.80
2018-06-30T09:23:32.089Z,7.50
2018-06-30T09:24:32.914Z,5.50
2018-06-30T09:25:32.050Z,5.50
2018-06-30T09:26:33.911Z,6.70
2018-06-30T09:27:34.412Z,4.90
2018-06-30T09:28:32.022Z,7.40
2018-06-30T09:29:33.421Z,7.80
2018-06-30T09:30:32.985Z,5.90
2018-06-30T09:31:32.190Z,5.10
2018-06-30T09:32:32.040Z,5.90
2018-06-30T09:33:37.418Z,8.20
2018-06-30T09:34:33.296Z,8.70
2018-06-30T09:35:32.005Z,5.30
2018-06-30T09:36:32.046Z,7.10
2018-06-30T09:37:54.428Z,7.00
2018-06-30T09:38:34.983Z,8.50
2018-06-30T09:39:38.486Z,6.50
2018-06-30T09:40:32.012Z,10.50
2018-06-30T09:41:37.475Z,6.50
2018-06-30T09:42:32.018Z,6.10
2018-06-30T09:43:32.000Z,9.80
2018-06-30T09:44:32.056Z,6.80
2018-06-30T09:45:31.977Z,6.10
2018-06-30T09:46:32.196Z,7.40
2018-06-30T09:47:32.558Z,6.50
2018-06-30T09:48:34.507Z,6.60
2018-06-30T09:49:35.043Z,6.30
2018-06-30T09:50:33.920Z,6.70
2018-06-30T09:51:32.518Z,6.50
2018-06-30T09:52:59.688Z,6.60
2018-06-30T09:53:33.735Z,6.90
2018-06-30T09:54:32.534Z,6.70
2018-06-30T09:55:47.809Z,8.20
2018-06-30T09:56:31.995Z,9.10
2018-06-30T09:57:37.439Z,6.20
2018-06-30T09:58:31.964Z,5.50
2018-06-30T09:59:37.422Z,8.40
2018-06-30T10:00:32.026Z,7.10
2018-06-30T10:01:31.999Z,8.00
2018-06-30T10:03:32.075Z,6.10
2018-06-30T10:04:35.422Z,6.70
2018-06-30T10:05:33.193Z,5.60
2018-06-30T10:06:34.516Z,5.50
2018-06-30T10:07:32.009Z,6.70
2018-06-30T10:11:37.257Z,6.20
2018-06-30T10:12:06.119Z,7.40
2018-06-30T10:13:09.658Z,6.00
2018-06-30T10:19:04.623Z,5.10
2018-06-30T10:20:05.132Z,5.80
2018-06-30T10:21:37.156Z,5.10
2018-06-30T10:22:33.346Z,8.10
2018-06-30T10:23:27.628Z,7.60
2018-06-30T10:24:05.885Z,5.50
2018-06-30T10:25:05.452Z,6.90
2018-06-30T10:27:04.537Z,7.40
2018-06-30T10:28:04.585Z,7.70
2018-06-30T10:29:04.535Z,6.00
2018-06-30T10:30:04.541Z,6.10
2018-06-30T10:31:04.539Z,7.40
2018-06-30T10:32:04.540Z,6.60
2018-06-30T10:33:04.572Z,6.60
2018-06-30T10:34:04.531Z,8.00
2018-06-30T10:35:05.269Z,6.70
2018-06-30T10:36:04.590Z,6.00
2018-06-30T10:37:04.543Z,5.50
2018-06-30T10:38:25.687Z,6.80
2018-06-30T10:39:04.554Z,7.00
2018-06-30T10:40:04.552Z,5.30
2018-06-30T10:41:04.566Z,5.10
2018-06-30T10:42:05.146Z,5.90
2018-06-30T10:43:04.561Z,5.70
2018-06-30T10:44:05.217Z,4.80
2018-06-30T10:45:07.644Z,4.10
2018-06-30T10:46:05.642Z,5.80
2018-06-30T10:47:04.581Z,5.50
2018-06-30T10:48:04.552Z,4.10
2018-06-30T10:49:04.600Z,5.40
2018-06-30T10:50:04.565Z,4.90
2018-06-30T10:51:04.586Z,4.70
2018-06-30T10:52:05.143Z,6.50
2018-06-30T10:53:05.233Z,6.00
2018-06-30T10:54:04.561Z,6.70
2018-06-30T10:55:05.347Z,5.70
2018-06-30T10:56:05.431Z,4.20
2018-06-30T10:57:10.152Z,6.00
2018-06-30T10:58:06.642Z,7.10
2018-06-30T10:59:04.590Z,6.00
2018-06-30T11:00:04.624Z,4.90
2018-06-30T11:01:04.653Z,5.30
2018-06-30T11:02:04.652Z,5.00
2018-06-30T11:03:04.752Z,5.40
2018-06-30T11:04:05.702Z,6.30
2018-06-30T11:05:07.209Z,6.60
2018-06-30T11:06:05.444Z,5.80
2018-06-30T11:07:04.598Z,4.10
2018-06-30T11:08:04.681Z,4.80
2018-06-30T11:09:04.628Z,4.50
2018-06-30T11:10:11.145Z,6.40
2018-06-30T11:11:04.658Z,4.90
2018-06-30T11:12:04.714Z,4.90
2018-06-30T11:13:05.148Z,4.90
2018-06-30T11:14:04.678Z,4.90
2018-06-30T11:15:06.329Z,4.30
2018-06-30T11:16:04.728Z,5.20
2018-06-30T11:17:04.629Z,6.10
2018-06-30T11:18:04.956Z,8.50
2018-06-30T11:19:04.665Z,3.90
2018-06-30T11:20:11.147Z,8.90
2018-06-30T11:21:04.642Z,4.70
2018-06-30T11:22:04.696Z,4.60
2018-06-30T11:23:09.155Z,5.70
2018-06-30T11:24:05.345Z,5.30
2018-06-30T11:25:04.669Z,6.10
2018-06-30T11:26:04.677Z,4.80
2018-06-30T11:27:04.678Z,3.60
2018-06-30T11:28:04.683Z,6.10
2018-06-30T11:29:04.685Z,5.20
2018-06-30T11:30:04.666Z,6.50
2018-06-30T11:31:04.681Z,4.20
2018-06-30T11:32:04.686Z,4.30
2018-06-30T11:33:04.704Z,4.20
2018-06-30T11:34:04.683Z,4.50
2018-06-30T11:35:04.712Z,4.20
2018-06-30T11:36:04.683Z,3.40
2018-06-30T11:37:04.705Z,4.80
2018-06-30T11:38:04.698Z,5.60
2018-06-30T11:39:04.710Z,6.70
2018-06-30T11:40:04.725Z,6.60
2018-06-30T11:41:08.656Z,7.30
2018-06-30T11:42:06.153Z,4.70
2018-06-30T11:43:04.726Z,6.00
2018-06-30T11:44:04.715Z,7.30
2018-06-30T11:45:04.720Z,3.40
2018-06-30T11:46:04.734Z,4.40
2018-06-30T11:47:04.772Z,4.30
2018-06-30T11:48:04.748Z,5.00
2018-06-30T11:49:04.740Z,3.80
2018-06-30T11:50:04.762Z,3.50
2018-06-30T11:51:04.813Z,6.20
2018-06-30T11:52:04.739Z,6.70
2018-06-30T11:53:04.741Z,5.70
2018-06-30T11:54:04.764Z,3.70
2018-06-30T11:55:04.771Z,5.00
2018-06-30T11:56:04.762Z,6.20
2018-06-30T11:57:04.758Z,5.30
2018-06-30T11:58:04.758Z,3.90
2018-06-30T11:59:04.776Z,3.60
2018-06-30T12:00:04.791Z,3.80
2018-06-30T12:01:04.814Z,6.60
2018-06-30T12:02:04.828Z,3.20
2018-06-30T12:03:04.814Z,3.70
2018-06-30T12:04:04.786Z,4.00
2018-06-30T12:05:04.807Z,6.40
2018-06-30T12:06:04.786Z,4.50
2018-06-30T12:07:04.794Z,4.20
2018-06-30T12:08:04.803Z,5.00
2018-06-30T12:09:04.818Z,4.30
2018-06-30T12:10:04.824Z,6.20
2018-06-30T12:11:04.821Z,5.60
2018-06-30T12:12:04.819Z,6.70
2018-06-30T12:13:04.810Z,4.00
2018-06-30T12:14:04.822Z,6.00
2018-06-30T12:15:04.813Z,4.30
2018-06-30T12:16:04.835Z,4.30
2018-06-30T12:17:04.837Z,5.80
2018-06-30T12:18:04.828Z,4.20
2018-06-30T12:19:04.829Z,5.00
2018-06-30T12:20:04.829Z,4.10
2018-06-30T12:21:04.888Z,6.00
2018-06-30T12:22:04.872Z,5.10
2018-06-30T12:23:04.848Z,5.00
2018-06-30T12:24:04.862Z,4.10
2018-06-30T12:25:04.850Z,5.80
2018-06-30T12:26:04.856Z,5.20
2018-06-30T12:27:04.858Z,5.20
2018-06-30T12:28:04.876Z,5.50
2018-06-30T12:29:04.852Z,4.20
2018-06-30T12:30:04.854Z,4.70
2018-06-30T12:31:04.865Z,4.10
2018-06-30T12:32:04.904Z,4.20
2018-06-30T12:33:04.889Z,5.90
2018-06-30T12:34:04.870Z,5.00
2018-06-30T12:35:04.917Z,4.90
2018-06-30T12:36:04.885Z,4.50
2018-06-30T12:37:04.897Z,4.70
2018-06-30T12:38:04.893Z,3.30
2018-06-30T12:39:04.920Z,5.40
2018-06-30T12:40:04.896Z,4.30
2018-06-30T12:41:04.886Z,3.60
2018-06-30T12:42:04.904Z,3.90
2018-06-30T12:43:04.908Z,5.90
2018-06-30T12:44:04.905Z,4.40
2018-06-30T12:45:04.899Z,9.60
2018-06-30T12:46:04.890Z,5.70
2018-06-30T12:47:04.921Z,3.40
2018-06-30T12:48:04.925Z,3.80
2018-06-30T12:49:04.909Z,5.40
2018-06-30T12:50:04.947Z,4.30
2018-06-30T12:51:04.920Z,4.20
2018-06-30T12:52:04.916Z,3.60
2018-06-30T12:53:04.943Z,5.50
2018-06-30T12:54:04.920Z,4.20
2018-06-30T12:55:04.938Z,4.30
2018-06-30T12:56:04.920Z,4.80
2018-06-30T12:57:04.923Z,5.10
2018-06-30T12:58:04.925Z,3.80
2018-06-30T12:59:04.923Z,4.40
2018-06-30T13:00:04.939Z,5.70
2018-06-30T13:01:04.928Z,5.20
2018-06-30T13:02:04.933Z,4.20
2018-06-30T13:03:04.926Z,3.80
2018-06-30T13:04:04.936Z,3.70
2018-06-30T13:05:04.959Z,4.50
2018-06-30T13:06:04.935Z,6.80
2018-06-30T13:07:04.929Z,4.50
2018-06-30T13:08:04.944Z,3.40
2018-06-30T13:09:04.945Z,4.40
2018-06-30T13:10:04.948Z,3.90
2018-06-30T13:11:04.983Z,6.30
2018-06-30T13:12:05.767Z,7.50
2018-06-30T13:13:04.938Z,4.40
2018-06-30T13:14:04.944Z,6.30
2018-06-30T13:15:04.941Z,4.70